sensor_id;sensor_type;location;lat;lon;timestamp;temperature;humidity
41294;DHT22;27037;52.010;4.446;2022-07-04T00:02:18;16.00;99.90
41294;DHT22;27037;52.010;4.446;2022-07-04T00:04:43;16.00;99.90
41294;DHT22;27037;52.010;4.446;2022-07-04T00:07:09;16.00;99.90
41294;DHT22;27037;52.010;4.446;2022-07-04T00:09:34;15.90;99.90
41294;DHT22;27037;52.010;4.446;2022-07-04T00:12:00;15.90;99.90
41294;DHT22;27037;52.010;4.446;2022-07-04T00:14:25;15.90;99.90
41294;DHT22;27037;52.010;4.446;2022-07-04T00:16:51;15.90;99.90
41294;DHT22;27037;52.010;4.446;2022-07-04T00:19:16;15.90;99.90
41294;DHT22;27037;52.010;4.446;2022-07-04T00:21:42;15.90;99.90
41294;DHT22;27037;52.010;4.446;2022-07-04T00:24:08;15.80;99.90
41294;DHT22;27037;52.010;4.446;2022-07-04T00:26:33;15.80;99.90
41294;DHT22;27037;52.010;4.446;2022-07-04T00:28:59;15.80;99.90
41294;DHT22;27037;52.010;4.446;2022-07-04T00:31:24;15.80;99.90
41294;DHT22;27037;52.010;4.446;2022-07-04T00:33:50;15.80;99.90
41294;DHT22;27037;52.010;4.446;2022-07-04T00:36:15;15.70;99.90
41294;DHT22;27037;52.010;4.446;2022-07-04T00:38:41;15.70;99.90
41294;DHT22;27037;52.010;4.446;2022-07-04T00:41:06;15.70;99.90
41294;DHT22;27037;52.010;4.446;2022-07-04T00:43:32;15.70;99.90
41294;DHT22;27037;52.010;4.446;2022-07-04T00:45:58;15.70;99.90
41294;DHT22;27037;52.010;4.446;2022-07-04T00:48:23;15.70;99.90
41294;DHT22;27037;52.010;4.446;2022-07-04T00:50:49;15.70;99.90
41294;DHT22;27037;52.010;4.446;2022-07-04T00:53:16;15.70;99.90
41294;DHT22;27037;52.010;4.446;2022-07-04T00:55:44;15.70;99.90
41294;DHT22;27037;52.010;4.446;2022-07-04T00:58:11;15.60;99.90
41294;DHT22;27037;52.010;4.446;2022-07-04T01:00:38;15.70;99.90
41294;DHT22;27037;52.010;4.446;2022-07-04T01:03:04;15.70;99.90
41294;DHT22;27037;52.010;4.446;2022-07-04T01:05:29;15.70;99.90
41294;DHT22;27037;52.010;4.446;2022-07-04T01:07:56;15.60;99.90
41294;DHT22;27037;52.010;4.446;2022-07-04T01:10:22;15.70;99.90
41294;DHT22;27037;52.010;4.446;2022-07-04T01:12:47;15.70;99.90
41294;DHT22;27037;52.010;4.446;2022-07-04T01:15:13;15.70;99.90
41294;DHT22;27037;52.010;4.446;2022-07-04T01:17:39;15.70;99.90
41294;DHT22;27037;52.010;4.446;2022-07-04T01:20:05;15.70;99.90
41294;DHT22;27037;52.010;4.446;2022-07-04T01:22:30;15.60;99.90
41294;DHT22;27037;52.010;4.446;2022-07-04T01:24:56;15.60;99.90
41294;DHT22;27037;52.010;4.446;2022-07-04T01:27:22;15.60;99.90
41294;DHT22;27037;52.010;4.446;2022-07-04T01:29:47;15.60;99.90
41294;DHT22;27037;52.010;4.446;2022-07-04T01:32:13;15.60;99.90
41294;DHT22;27037;52.010;4.446;2022-07-04T01:34:38;15.60;99.90
41294;DHT22;27037;52.010;4.446;2022-07-04T01:37:04;15.60;99.90
41294;DHT22;27037;52.010;4.446;2022-07-04T01:39:30;15.60;99.90
41294;DHT22;27037;52.010;4.446;2022-07-04T01:41:56;15.50;99.90
41294;DHT22;27037;52.010;4.446;2022-07-04T01:44:21;15.60;99.90
41294;DHT22;27037;52.010;4.446;2022-07-04T01:46:47;15.50;99.90
41294;DHT22;27037;52.010;4.446;2022-07-04T01:49:13;15.50;99.90
41294;DHT22;27037;52.010;4.446;2022-07-04T01:51:49;15.50;99.90
41294;DHT22;27037;52.010;4.446;2022-07-04T01:54:15;15.50;99.90
41294;DHT22;27037;52.010;4.446;2022-07-04T01:56:41;15.50;99.90
41294;DHT22;27037;52.010;4.446;2022-07-04T01:59:08;15.50;99.90
41294;DHT22;27037;52.010;4.446;2022-07-04T02:01:34;15.50;99.90
41294;DHT22;27037;52.010;4.446;2022-07-04T02:04:01;15.50;99.90
41294;DHT22;27037;52.010;4.446;2022-07-04T02:06:28;15.40;99.90
41294;DHT22;27037;52.010;4.446;2022-07-04T02:08:53;15.40;99.90
41294;DHT22;27037;52.010;4.446;2022-07-04T02:11:38;15.40;99.90
41294;DHT22;27037;52.010;4.446;2022-07-04T02:14:22;15.40;99.90
41294;DHT22;27037;52.010;4.446;2022-07-04T02:16:48;15.40;99.90
41294;DHT22;27037;52.010;4.446;2022-07-04T02:19:14;15.40;99.90
41294;DHT22;27037;52.010;4.446;2022-07-04T02:21:39;15.40;99.90
41294;DHT22;27037;52.010;4.446;2022-07-04T02:24:05;15.40;99.90
41294;DHT22;27037;52.010;4.446;2022-07-04T02:26:31;15.40;99.90
41294;DHT22;27037;52.010;4.446;2022-07-04T02:28:56;15.40;99.90
41294;DHT22;27037;52.010;4.446;2022-07-04T02:31:22;15.30;99.90
41294;DHT22;27037;52.010;4.446;2022-07-04T02:33:48;15.30;99.90
41294;DHT22;27037;52.010;4.446;2022-07-04T02:36:13;15.30;99.90
41294;DHT22;27037;52.010;4.446;2022-07-04T02:38:39;15.30;99.90
41294;DHT22;27037;52.010;4.446;2022-07-04T02:41:05;15.30;99.90
41294;DHT22;27037;52.010;4.446;2022-07-04T02:43:30;15.30;99.90
41294;DHT22;27037;52.010;4.446;2022-07-04T02:45:56;15.30;99.90
41294;DHT22;27037;52.010;4.446;2022-07-04T02:48:21;15.30;99.90
41294;DHT22;27037;52.010;4.446;2022-07-04T02:50:47;15.30;99.90
41294;DHT22;27037;52.010;4.446;2022-07-04T02:53:12;15.30;99.90
41294;DHT22;27037;52.010;4.446;2022-07-04T02:55:38;15.30;99.90
41294;DHT22;27037;52.010;4.446;2022-07-04T02:58:03;15.30;99.90
41294;DHT22;27037;52.010;4.446;2022-07-04T03:00:29;15.30;99.90
41294;DHT22;27037;52.010;4.446;2022-07-04T03:02:55;15.40;99.90
41294;DHT22;27037;52.010;4.446;2022-07-04T03:05:20;15.30;99.90
41294;DHT22;27037;52.010;4.446;2022-07-04T03:07:46;15.40;99.90
41294;DHT22;27037;52.010;4.446;2022-07-04T03:10:12;15.30;99.90
41294;DHT22;27037;52.010;4.446;2022-07-04T03:12:37;15.40;99.90
41294;DHT22;27037;52.010;4.446;2022-07-04T03:15:03;15.30;99.90
41294;DHT22;27037;52.010;4.446;2022-07-04T03:17:29;15.30;99.90
41294;DHT22;27037;52.010;4.446;2022-07-04T03:19:56;15.40;99.90
41294;DHT22;27037;52.010;4.446;2022-07-04T03:22:22;15.40;99.90
41294;DHT22;27037;52.010;4.446;2022-07-04T03:24:47;15.40;99.90
41294;DHT22;27037;52.010;4.446;2022-07-04T03:27:13;15.40;99.90
41294;DHT22;27037;52.010;4.446;2022-07-04T03:29:39;15.30;99.90
41294;DHT22;27037;52.010;4.446;2022-07-04T03:32:05;15.40;99.90
41294;DHT22;27037;52.010;4.446;2022-07-04T03:34:31;15.40;99.90
41294;DHT22;27037;52.010;4.446;2022-07-04T03:36:56;15.40;99.90
41294;DHT22;27037;52.010;4.446;2022-07-04T03:39:22;15.40;99.90
41294;DHT22;27037;52.010;4.446;2022-07-04T03:41:48;15.40;99.90
41294;DHT22;27037;52.010;4.446;2022-07-04T03:44:13;15.40;99.90
41294;DHT22;27037;52.010;4.446;2022-07-04T03:46:39;15.40;99.90
41294;DHT22;27037;52.010;4.446;2022-07-04T03:49:05;15.40;99.90
41294;DHT22;27037;52.010;4.446;2022-07-04T03:51:31;15.40;99.90
41294;DHT22;27037;52.010;4.446;2022-07-04T03:53:57;15.40;99.90
41294;DHT22;27037;52.010;4.446;2022-07-04T03:56:22;15.40;99.90
41294;DHT22;27037;52.010;4.446;2022-07-04T03:58:48;15.40;99.90
41294;DHT22;27037;52.010;4.446;2022-07-04T04:01:17;15.40;99.90
41294;DHT22;27037;52.010;4.446;2022-07-04T04:03:43;15.40;99.90
41294;DHT22;27037;52.010;4.446;2022-07-04T04:06:28;15.50;99.90
41294;DHT22;27037;52.010;4.446;2022-07-04T04:08:54;15.50;99.90
41294;DHT22;27037;52.010;4.446;2022-07-04T04:11:19;15.50;99.90
41294;DHT22;27037;52.010;4.446;2022-07-04T04:13:45;15.50;99.90
41294;DHT22;27037;52.010;4.446;2022-07-04T04:16:10;15.50;99.90
41294;DHT22;27037;52.010;4.446;2022-07-04T04:18:36;15.50;99.90
41294;DHT22;27037;52.010;4.446;2022-07-04T04:21:03;15.50;99.90
41294;DHT22;27037;52.010;4.446;2022-07-04T04:23:28;15.50;99.90
41294;DHT22;27037;52.010;4.446;2022-07-04T04:25:54;15.50;99.90
41294;DHT22;27037;52.010;4.446;2022-07-04T04:28:19;15.50;99.90
41294;DHT22;27037;52.010;4.446;2022-07-04T04:30:45;15.50;99.90
41294;DHT22;27037;52.010;4.446;2022-07-04T04:33:11;15.50;99.90
41294;DHT22;27037;52.010;4.446;2022-07-04T04:35:36;15.50;99.90
41294;DHT22;27037;52.010;4.446;2022-07-04T04:38:02;15.50;99.90
41294;DHT22;27037;52.010;4.446;2022-07-04T04:40:27;15.60;99.90
41294;DHT22;27037;52.010;4.446;2022-07-04T04:42:53;15.60;99.90
41294;DHT22;27037;52.010;4.446;2022-07-04T04:45:19;15.60;99.90
41294;DHT22;27037;52.010;4.446;2022-07-04T04:47:46;15.60;99.90
41294;DHT22;27037;52.010;4.446;2022-07-04T04:50:11;15.60;99.90
41294;DHT22;27037;52.010;4.446;2022-07-04T04:52:41;15.70;99.90
41294;DHT22;27037;52.010;4.446;2022-07-04T04:55:07;15.70;99.90
41294;DHT22;27037;52.010;4.446;2022-07-04T04:57:33;15.70;99.90
41294;DHT22;27037;52.010;4.446;2022-07-04T04:59:59;15.80;99.90
41294;DHT22;27037;52.010;4.446;2022-07-04T05:02:25;15.80;99.90
41294;DHT22;27037;52.010;4.446;2022-07-04T05:04:52;15.80;99.90
41294;DHT22;27037;52.010;4.446;2022-07-04T05:07:18;15.90;99.90
41294;DHT22;27037;52.010;4.446;2022-07-04T05:09:43;15.90;99.90
41294;DHT22;27037;52.010;4.446;2022-07-04T05:12:09;16.00;99.90
41294;DHT22;27037;52.010;4.446;2022-07-04T05:14:35;16.00;99.90
41294;DHT22;27037;52.010;4.446;2022-07-04T05:17:00;16.10;99.90
41294;DHT22;27037;52.010;4.446;2022-07-04T05:19:26;16.20;99.90
41294;DHT22;27037;52.010;4.446;2022-07-04T05:21:51;16.20;99.90
41294;DHT22;27037;52.010;4.446;2022-07-04T05:24:17;16.30;99.90
41294;DHT22;27037;52.010;4.446;2022-07-04T05:26:42;16.30;99.90
41294;DHT22;27037;52.010;4.446;2022-07-04T05:29:08;16.40;99.90
41294;DHT22;27037;52.010;4.446;2022-07-04T05:31:34;16.50;99.90
41294;DHT22;27037;52.010;4.446;2022-07-04T05:33:59;16.50;99.90
41294;DHT22;27037;52.010;4.446;2022-07-04T05:36:26;16.60;99.90
41294;DHT22;27037;52.010;4.446;2022-07-04T05:38:52;16.60;99.90
41294;DHT22;27037;52.010;4.446;2022-07-04T05:41:17;16.70;99.90
41294;DHT22;27037;52.010;4.446;2022-07-04T05:43:43;16.70;99.90
41294;DHT22;27037;52.010;4.446;2022-07-04T05:46:08;16.70;99.90
41294;DHT22;27037;52.010;4.446;2022-07-04T05:48:34;16.80;99.90
41294;DHT22;27037;52.010;4.446;2022-07-04T05:51:00;16.80;99.90
41294;DHT22;27037;52.010;4.446;2022-07-04T05:53:25;16.80;99.90
41294;DHT22;27037;52.010;4.446;2022-07-04T05:55:51;16.80;99.90
41294;DHT22;27037;52.010;4.446;2022-07-04T05:58:17;16.90;99.90
41294;DHT22;27037;52.010;4.446;2022-07-04T06:00:43;16.90;99.90
41294;DHT22;27037;52.010;4.446;2022-07-04T06:03:08;16.90;99.90
41294;DHT22;27037;52.010;4.446;2022-07-04T06:05:34;16.90;99.90
41294;DHT22;27037;52.010;4.446;2022-07-04T06:08:00;17.00;99.90
41294;DHT22;27037;52.010;4.446;2022-07-04T06:10:27;17.00;99.90
41294;DHT22;27037;52.010;4.446;2022-07-04T06:12:52;17.10;99.90
41294;DHT22;27037;52.010;4.446;2022-07-04T06:15:18;17.10;99.90
41294;DHT22;27037;52.010;4.446;2022-07-04T06:17:44;17.10;99.90
41294;DHT22;27037;52.010;4.446;2022-07-04T06:20:09;17.20;99.90
41294;DHT22;27037;52.010;4.446;2022-07-04T06:22:47;17.10;99.90
41294;DHT22;27037;52.010;4.446;2022-07-04T06:25:14;17.20;99.90
41294;DHT22;27037;52.010;4.446;2022-07-04T06:27:41;17.20;99.90
41294;DHT22;27037;52.010;4.446;2022-07-04T06:30:08;17.30;99.90
41294;DHT22;27037;52.010;4.446;2022-07-04T06:32:50;17.30;99.90
41294;DHT22;27037;52.010;4.446;2022-07-04T06:35:21;17.30;99.90
41294;DHT22;27037;52.010;4.446;2022-07-04T06:38:06;17.40;99.90
41294;DHT22;27037;52.010;4.446;2022-07-04T06:40:31;17.40;99.90
41294;DHT22;27037;52.010;4.446;2022-07-04T06:42:57;17.50;99.90
41294;DHT22;27037;52.010;4.446;2022-07-04T06:45:23;17.50;99.90
41294;DHT22;27037;52.010;4.446;2022-07-04T06:47:48;17.50;99.90
41294;DHT22;27037;52.010;4.446;2022-07-04T06:50:14;17.60;99.90
41294;DHT22;27037;52.010;4.446;2022-07-04T06:52:39;17.70;99.90
41294;DHT22;27037;52.010;4.446;2022-07-04T06:55:06;17.80;99.90
41294;DHT22;27037;52.010;4.446;2022-07-04T06:57:32;17.90;99.90
41294;DHT22;27037;52.010;4.446;2022-07-04T06:59:58;17.90;99.90
41294;DHT22;27037;52.010;4.446;2022-07-04T07:02:24;18.00;99.90
41294;DHT22;27037;52.010;4.446;2022-07-04T07:04:50;18.10;99.90
41294;DHT22;27037;52.010;4.446;2022-07-04T07:07:16;18.30;99.90
41294;DHT22;27037;52.010;4.446;2022-07-04T07:09:41;18.40;99.90
41294;DHT22;27037;52.010;4.446;2022-07-04T07:12:07;18.40;99.90
41294;DHT22;27037;52.010;4.446;2022-07-04T07:14:33;18.50;99.90
41294;DHT22;27037;52.010;4.446;2022-07-04T07:16:58;18.60;99.90
41294;DHT22;27037;52.010;4.446;2022-07-04T07:19:24;18.70;99.90
41294;DHT22;27037;52.010;4.446;2022-07-04T07:21:50;18.90;99.90
41294;DHT22;27037;52.010;4.446;2022-07-04T07:24:16;19.00;99.90
41294;DHT22;27037;52.010;4.446;2022-07-04T07:26:41;19.10;99.90
41294;DHT22;27037;52.010;4.446;2022-07-04T07:29:07;19.30;99.90
41294;DHT22;27037;52.010;4.446;2022-07-04T07:31:32;19.30;99.90
41294;DHT22;27037;52.010;4.446;2022-07-04T07:33:58;19.50;99.90
41294;DHT22;27037;52.010;4.446;2022-07-04T07:36:24;19.50;99.90
41294;DHT22;27037;52.010;4.446;2022-07-04T07:38:49;19.70;99.90
41294;DHT22;27037;52.010;4.446;2022-07-04T07:41:15;19.80;99.90
41294;DHT22;27037;52.010;4.446;2022-07-04T07:43:40;19.90;99.90
41294;DHT22;27037;52.010;4.446;2022-07-04T07:46:07;20.00;99.90
41294;DHT22;27037;52.010;4.446;2022-07-04T07:48:33;20.10;99.90
41294;DHT22;27037;52.010;4.446;2022-07-04T07:50:59;20.20;99.90
41294;DHT22;27037;52.010;4.446;2022-07-04T07:53:25;20.20;99.90
41294;DHT22;27037;52.010;4.446;2022-07-04T07:55:51;20.30;99.90
41294;DHT22;27037;52.010;4.446;2022-07-04T07:58:16;20.40;99.90
41294;DHT22;27037;52.010;4.446;2022-07-04T08:00:42;20.60;99.90
41294;DHT22;27037;52.010;4.446;2022-07-04T08:03:08;20.80;99.90
41294;DHT22;27037;52.010;4.446;2022-07-04T08:05:52;21.10;99.90
41294;DHT22;27037;52.010;4.446;2022-07-04T08:08:18;21.30;99.90
41294;DHT22;27037;52.010;4.446;2022-07-04T08:10:44;21.40;99.90
41294;DHT22;27037;52.010;4.446;2022-07-04T08:13:09;21.50;99.90
41294;DHT22;27037;52.010;4.446;2022-07-04T08:15:35;21.50;99.90
41294;DHT22;27037;52.010;4.446;2022-07-04T08:18:01;21.40;99.90
41294;DHT22;27037;52.010;4.446;2022-07-04T08:20:27;21.30;99.90
41294;DHT22;27037;52.010;4.446;2022-07-04T08:22:52;21.30;99.90
41294;DHT22;27037;52.010;4.446;2022-07-04T08:25:18;21.30;99.90
41294;DHT22;27037;52.010;4.446;2022-07-04T08:27:45;21.20;99.90
41294;DHT22;27037;52.010;4.446;2022-07-04T08:30:11;21.30;99.90
41294;DHT22;27037;52.010;4.446;2022-07-04T08:32:36;21.30;99.70
41294;DHT22;27037;52.010;4.446;2022-07-04T08:35:03;21.50;99.30
41294;DHT22;27037;52.010;4.446;2022-07-04T08:37:29;21.60;98.70
41294;DHT22;27037;52.010;4.446;2022-07-04T08:39:54;21.60;98.30
41294;DHT22;27037;52.010;4.446;2022-07-04T08:42:21;21.50;98.00
41294;DHT22;27037;52.010;4.446;2022-07-04T08:44:53;21.50;98.00
41294;DHT22;27037;52.010;4.446;2022-07-04T08:47:22;21.50;97.50
41294;DHT22;27037;52.010;4.446;2022-07-04T08:50:12;21.40;97.90
41294;DHT22;27037;52.010;4.446;2022-07-04T08:52:40;21.50;97.50
41294;DHT22;27037;52.010;4.446;2022-07-04T08:55:08;21.50;97.10
41294;DHT22;27037;52.010;4.446;2022-07-04T08:57:52;21.50;96.60
41294;DHT22;27037;52.010;4.446;2022-07-04T09:00:37;21.50;96.60
41294;DHT22;27037;52.010;4.446;2022-07-04T09:03:04;21.50;97.10
41294;DHT22;27037;52.010;4.446;2022-07-04T09:05:30;21.60;96.50
41294;DHT22;27037;52.010;4.446;2022-07-04T09:08:00;21.60;96.20
41294;DHT22;27037;52.010;4.446;2022-07-04T09:10:26;21.60;95.40
41294;DHT22;27037;52.010;4.446;2022-07-04T09:12:52;21.60;95.20
41294;DHT22;27037;52.010;4.446;2022-07-04T09:15:19;21.60;94.70
41294;DHT22;27037;52.010;4.446;2022-07-04T09:17:45;21.70;94.70
41294;DHT22;27037;52.010;4.446;2022-07-04T09:20:17;21.60;93.70
41294;DHT22;27037;52.010;4.446;2022-07-04T09:22:44;21.60;93.30
41294;DHT22;27037;52.010;4.446;2022-07-04T09:25:10;21.60;93.60
41294;DHT22;27037;52.010;4.446;2022-07-04T09:27:46;21.70;93.70
41294;DHT22;27037;52.010;4.446;2022-07-04T09:30:26;21.90;92.80
41294;DHT22;27037;52.010;4.446;2022-07-04T09:32:56;22.00;92.60
41294;DHT22;27037;52.010;4.446;2022-07-04T09:35:27;22.00;91.40
41294;DHT22;27037;52.010;4.446;2022-07-04T09:37:56;22.10;91.80
41294;DHT22;27037;52.010;4.446;2022-07-04T09:40:25;22.10;91.50
41294;DHT22;27037;52.010;4.446;2022-07-04T09:42:52;22.10;91.10
41294;DHT22;27037;52.010;4.446;2022-07-04T09:45:18;22.20;91.20
41294;DHT22;27037;52.010;4.446;2022-07-04T09:47:48;22.10;91.20
41294;DHT22;27037;52.010;4.446;2022-07-04T09:50:18;22.00;90.90
41294;DHT22;27037;52.010;4.446;2022-07-04T09:53:01;22.00;91.50
41294;DHT22;27037;52.010;4.446;2022-07-04T09:57:53;22.20;90.90
41294;DHT22;27037;52.010;4.446;2022-07-04T10:00:27;22.30;90.90
41294;DHT22;27037;52.010;4.446;2022-07-04T10:02:54;22.50;90.50
41294;DHT22;27037;52.010;4.446;2022-07-04T10:07:47;22.80;89.30
41294;DHT22;27037;52.010;4.446;2022-07-04T10:10:34;22.90;89.50
41294;DHT22;27037;52.010;4.446;2022-07-04T10:13:07;23.10;86.50
41294;DHT22;27037;52.010;4.446;2022-07-04T10:15:36;23.20;84.60
41294;DHT22;27037;52.010;4.446;2022-07-04T10:18:03;23.30;85.60
41294;DHT22;27037;52.010;4.446;2022-07-04T10:20:29;23.50;83.10
41294;DHT22;27037;52.010;4.446;2022-07-04T10:22:56;23.70;82.30
41294;DHT22;27037;52.010;4.446;2022-07-04T10:25:22;23.60;78.50
41294;DHT22;27037;52.010;4.446;2022-07-04T10:27:48;23.50;78.80
41294;DHT22;27037;52.010;4.446;2022-07-04T10:30:22;23.40;77.40
41294;DHT22;27037;52.010;4.446;2022-07-04T10:32:49;23.30;77.20
41294;DHT22;27037;52.010;4.446;2022-07-04T10:35:16;23.30;76.80
41294;DHT22;27037;52.010;4.446;2022-07-04T10:38:05;23.30;76.70
41294;DHT22;27037;52.010;4.446;2022-07-04T10:40:52;23.40;77.30
41294;DHT22;27037;52.010;4.446;2022-07-04T10:48:53;23.40;76.10
41294;DHT22;27037;52.010;4.446;2022-07-04T10:54:19;23.30;74.50
41294;DHT22;27037;52.010;4.446;2022-07-04T10:56:53;23.30;75.30
41294;DHT22;27037;52.010;4.446;2022-07-04T10:59:27;23.40;75.20
41294;DHT22;27037;52.010;4.446;2022-07-04T11:07:14;23.60;71.80
41294;DHT22;27037;52.010;4.446;2022-07-04T11:09:40;23.60;72.60
41294;DHT22;27037;52.010;4.446;2022-07-04T11:12:06;23.70;73.00
41294;DHT22;27037;52.010;4.446;2022-07-04T11:14:46;23.80;72.50
41294;DHT22;27037;52.010;4.446;2022-07-04T11:17:59;23.80;71.40
41294;DHT22;27037;52.010;4.446;2022-07-04T11:20:00;23.80;70.60
41294;DHT22;27037;52.010;4.446;2022-07-04T11:22:29;23.80;69.00
41294;DHT22;27037;52.010;4.446;2022-07-04T11:24:55;23.80;69.90
41294;DHT22;27037;52.010;4.446;2022-07-04T11:27:22;23.80;69.80
41294;DHT22;27037;52.010;4.446;2022-07-04T11:29:54;23.80;68.80
41294;DHT22;27037;52.010;4.446;2022-07-04T11:32:20;23.50;68.30
41294;DHT22;27037;52.010;4.446;2022-07-04T11:34:47;23.40;69.00
41294;DHT22;27037;52.010;4.446;2022-07-04T11:37:14;23.40;68.50
41294;DHT22;27037;52.010;4.446;2022-07-04T11:39:39;23.40;69.00
41294;DHT22;27037;52.010;4.446;2022-07-04T11:42:05;23.40;68.70
41294;DHT22;27037;52.010;4.446;2022-07-04T11:44:49;23.30;68.90
41294;DHT22;27037;52.010;4.446;2022-07-04T11:47:37;23.30;70.00
41294;DHT22;27037;52.010;4.446;2022-07-04T11:50:08;23.20;69.80
41294;DHT22;27037;52.010;4.446;2022-07-04T11:55:11;23.20;69.70
41294;DHT22;27037;52.010;4.446;2022-07-04T11:57:45;23.30;70.80
41294;DHT22;27037;52.010;4.446;2022-07-04T12:00:18;23.40;70.20
41294;DHT22;27037;52.010;4.446;2022-07-04T12:02:45;23.50;69.10
41294;DHT22;27037;52.010;4.446;2022-07-04T12:05:12;23.50;69.00
41294;DHT22;27037;52.010;4.446;2022-07-04T12:07:45;23.50;70.00
41294;DHT22;27037;52.010;4.446;2022-07-04T12:10:24;23.70;69.70
41294;DHT22;27037;52.010;4.446;2022-07-04T12:15:19;23.90;69.00
41294;DHT22;27037;52.010;4.446;2022-07-04T12:17:48;24.00;69.40
41294;DHT22;27037;52.010;4.446;2022-07-04T12:20:16;24.00;68.60
41294;DHT22;27037;52.010;4.446;2022-07-04T12:22:51;24.00;67.80
41294;DHT22;27037;52.010;4.446;2022-07-04T12:25:27;24.00;67.70
41294;DHT22;27037;52.010;4.446;2022-07-04T12:28:00;24.10;67.50
41294;DHT22;27037;52.010;4.446;2022-07-04T12:30:27;24.10;67.50
41294;DHT22;27037;52.010;4.446;2022-07-04T12:32:58;24.20;67.40
41294;DHT22;27037;52.010;4.446;2022-07-04T12:38:15;24.30;66.00
41294;DHT22;27037;52.010;4.446;2022-07-04T12:41:00;24.30;66.10
41294;DHT22;27037;52.010;4.446;2022-07-04T12:46:05;24.40;65.40
41294;DHT22;27037;52.010;4.446;2022-07-04T12:48:32;24.50;65.60
41294;DHT22;27037;52.010;4.446;2022-07-04T12:51:18;24.60;64.70
41294;DHT22;27037;52.010;4.446;2022-07-04T12:53:46;24.60;64.40
41294;DHT22;27037;52.010;4.446;2022-07-04T12:56:34;24.60;64.50
41294;DHT22;27037;52.010;4.446;2022-07-04T12:59:14;24.70;63.70
41294;DHT22;27037;52.010;4.446;2022-07-04T13:01:42;24.70;63.30
41294;DHT22;27037;52.010;4.446;2022-07-04T13:04:08;24.60;63.40
41294;DHT22;27037;52.010;4.446;2022-07-04T13:06:33;24.60;64.10
41294;DHT22;27037;52.010;4.446;2022-07-04T13:09:00;24.70;63.80
41294;DHT22;27037;52.010;4.446;2022-07-04T13:11:26;24.70;63.50
41294;DHT22;27037;52.010;4.446;2022-07-04T13:14:10;24.80;63.00
41294;DHT22;27037;52.010;4.446;2022-07-04T13:16:36;24.70;62.00
41294;DHT22;27037;52.010;4.446;2022-07-04T13:19:02;24.50;62.00
41294;DHT22;27037;52.010;4.446;2022-07-04T13:21:28;24.40;62.50
41294;DHT22;27037;52.010;4.446;2022-07-04T13:23:53;24.40;63.00
41294;DHT22;27037;52.010;4.446;2022-07-04T13:26:19;24.40;62.70
41294;DHT22;27037;52.010;4.446;2022-07-04T13:28:45;24.40;62.90
41294;DHT22;27037;52.010;4.446;2022-07-04T13:31:11;24.50;62.60
41294;DHT22;27037;52.010;4.446;2022-07-04T13:33:37;24.60;62.00
41294;DHT22;27037;52.010;4.446;2022-07-04T13:36:03;24.70;61.50
41294;DHT22;27037;52.010;4.446;2022-07-04T13:38:29;24.70;62.00
41294;DHT22;27037;52.010;4.446;2022-07-04T13:40:54;24.70;62.60
41294;DHT22;27037;52.010;4.446;2022-07-04T13:43:25;24.70;63.10
41294;DHT22;27037;52.010;4.446;2022-07-04T13:45:53;24.80;61.80
41294;DHT22;27037;52.010;4.446;2022-07-04T13:48:19;24.80;61.60
41294;DHT22;27037;52.010;4.446;2022-07-04T13:50:45;24.80;61.50
41294;DHT22;27037;52.010;4.446;2022-07-04T13:53:10;24.90;62.10
41294;DHT22;27037;52.010;4.446;2022-07-04T13:55:36;24.90;61.90
41294;DHT22;27037;52.010;4.446;2022-07-04T13:58:03;25.00;61.70
41294;DHT22;27037;52.010;4.446;2022-07-04T14:00:29;25.00;60.60
41294;DHT22;27037;52.010;4.446;2022-07-04T14:02:55;25.00;60.20
41294;DHT22;27037;52.010;4.446;2022-07-04T14:05:20;24.90;60.80
41294;DHT22;27037;52.010;4.446;2022-07-04T14:07:46;25.00;60.80
41294;DHT22;27037;52.010;4.446;2022-07-04T14:10:12;25.00;60.60
41294;DHT22;27037;52.010;4.446;2022-07-04T14:12:37;25.00;60.90
41294;DHT22;27037;52.010;4.446;2022-07-04T14:15:03;25.00;61.50
41294;DHT22;27037;52.010;4.446;2022-07-04T14:17:29;25.00;61.10
41294;DHT22;27037;52.010;4.446;2022-07-04T14:19:55;25.00;61.20
41294;DHT22;27037;52.010;4.446;2022-07-04T14:22:21;24.90;60.70
41294;DHT22;27037;52.010;4.446;2022-07-04T14:24:47;24.70;61.30
41294;DHT22;27037;52.010;4.446;2022-07-04T14:27:12;24.70;61.90
41294;DHT22;27037;52.010;4.446;2022-07-04T14:29:38;24.60;62.40
41294;DHT22;27037;52.010;4.446;2022-07-04T14:32:04;24.70;62.20
41294;DHT22;27037;52.010;4.446;2022-07-04T14:34:30;24.60;62.20
41294;DHT22;27037;52.010;4.446;2022-07-04T14:36:55;24.50;62.40
41294;DHT22;27037;52.010;4.446;2022-07-04T14:39:21;24.40;62.50
41294;DHT22;27037;52.010;4.446;2022-07-04T14:41:47;24.40;62.80
41294;DHT22;27037;52.010;4.446;2022-07-04T14:44:14;24.40;62.90
41294;DHT22;27037;52.010;4.446;2022-07-04T14:46:40;24.40;63.30
41294;DHT22;27037;52.010;4.446;2022-07-04T14:49:05;24.40;63.90
41294;DHT22;27037;52.010;4.446;2022-07-04T14:51:31;24.40;64.00
41294;DHT22;27037;52.010;4.446;2022-07-04T14:53:57;24.60;63.80
41294;DHT22;27037;52.010;4.446;2022-07-04T14:56:22;24.60;63.40
41294;DHT22;27037;52.010;4.446;2022-07-04T14:58:48;24.70;63.40
41294;DHT22;27037;52.010;4.446;2022-07-04T15:01:14;24.70;62.90
41294;DHT22;27037;52.010;4.446;2022-07-04T15:03:39;24.50;63.40
41294;DHT22;27037;52.010;4.446;2022-07-04T15:06:05;24.40;63.80
41294;DHT22;27037;52.010;4.446;2022-07-04T15:08:31;24.40;63.60
41294;DHT22;27037;52.010;4.446;2022-07-04T15:10:56;24.30;64.00
41294;DHT22;27037;52.010;4.446;2022-07-04T15:13:22;24.30;64.30
41294;DHT22;27037;52.010;4.446;2022-07-04T15:15:47;24.30;65.00
41294;DHT22;27037;52.010;4.446;2022-07-04T15:18:13;24.30;64.20
41294;DHT22;27037;52.010;4.446;2022-07-04T15:20:39;24.30;64.30
41294;DHT22;27037;52.010;4.446;2022-07-04T15:23:23;24.20;64.40
41294;DHT22;27037;52.010;4.446;2022-07-04T15:26:07;24.20;65.20
41294;DHT22;27037;52.010;4.446;2022-07-04T15:28:33;24.20;64.30
41294;DHT22;27037;52.010;4.446;2022-07-04T15:30:58;24.10;64.40
41294;DHT22;27037;52.010;4.446;2022-07-04T15:33:26;24.10;65.20
41294;DHT22;27037;52.010;4.446;2022-07-04T15:35:54;24.10;64.60
41294;DHT22;27037;52.010;4.446;2022-07-04T15:38:20;24.00;65.00
41294;DHT22;27037;52.010;4.446;2022-07-04T15:40:46;24.00;65.00
41294;DHT22;27037;52.010;4.446;2022-07-04T15:43:15;24.00;65.60
41294;DHT22;27037;52.010;4.446;2022-07-04T15:45:41;24.00;65.70
41294;DHT22;27037;52.010;4.446;2022-07-04T15:48:07;24.00;65.30
41294;DHT22;27037;52.010;4.446;2022-07-04T15:50:32;23.90;65.60
41294;DHT22;27037;52.010;4.446;2022-07-04T15:52:58;23.90;65.90
41294;DHT22;27037;52.010;4.446;2022-07-04T15:55:23;23.90;65.10
41294;DHT22;27037;52.010;4.446;2022-07-04T15:57:49;23.80;65.70
41294;DHT22;27037;52.010;4.446;2022-07-04T16:00:15;23.90;65.80
41294;DHT22;27037;52.010;4.446;2022-07-04T16:02:41;23.90;65.00